createdAt,value
2022-08-05T00:00:17.492Z,97890.34
2022-08-05T00:02:51.033Z,97891.16
2022-08-05T00:05:27.105Z,97886.81
2022-08-05T00:08:35.216Z,97887.22
2022-08-05T00:11:03.105Z,97884.13
2022-08-05T00:13:39.648Z,97882.69
2022-08-05T00:16:12.490Z,97883.09
2022-08-05T00:18:42.568Z,97887.66
2022-08-05T00:21:14.396Z,97889.50
2022-08-05T00:23:46.453Z,97883.72
2022-08-05T00:26:22.036Z,97880.81
2022-08-05T00:28:49.774Z,97887.44
2022-08-05T00:31:16.826Z,97887.84
2022-08-05T00:34:53.755Z,97900.28
2022-08-05T00:37:12.461Z,97898.81
2022-08-05T00:39:57.059Z,97893.66
2022-08-05T00:42:38.167Z,97894.06
2022-08-05T00:45:08.877Z,97892.81
2022-08-05T00:47:56.601Z,97904.19
2022-08-05T00:50:25.708Z,97902.03
2022-08-05T00:52:55.076Z,97909.41
2022-08-05T00:55:23.357Z,97901.13
2022-08-05T00:58:16.715Z,97903.41
2022-08-05T01:00:47.562Z,97912.34
2022-08-05T01:03:22.530Z,97921.31
2022-08-05T01:05:54.446Z,97915.59
2022-08-05T01:08:40.529Z,97913.31
2022-08-05T01:11:33.457Z,97930.50
2022-08-05T01:14:15.589Z,97956.69
2022-08-05T01:17:01.470Z,97945.19
2022-08-05T01:20:01.615Z,97960.41
2022-08-05T01:23:15.525Z,97965.66
2022-08-05T01:26:28.773Z,97964.75
2022-08-05T01:29:27.507Z,97974.19
2022-08-05T01:32:04.399Z,97975.66
2022-08-05T01:34:34.229Z,97973.22
2022-08-05T01:37:24.752Z,97972.16
2022-08-05T01:39:58.672Z,97973.91
2022-08-05T01:42:28.245Z,97979.69
2022-08-05T01:44:59.895Z,97984.69
2022-08-05T01:47:39.026Z,97985.91
2022-08-05T01:50:16.072Z,97981.50
2022-08-05T01:52:50.096Z,97981.09
2022-08-05T01:55:21.270Z,97996.56
2022-08-05T01:58:11.071Z,97986.06
2022-08-05T02:00:42.480Z,97986.72
2022-08-05T02:03:29.043Z,98000.16
2022-08-05T02:06:03.749Z,98006.69
2022-08-05T02:08:58.004Z,98005.59
2022-08-05T02:12:01.688Z,98004.63
2022-08-05T02:14:39.911Z,98004.50
2022-08-05T02:18:28.706Z,98010.56
2022-08-05T02:20:20.497Z,98020.34
2022-08-05T02:22:59.828Z,98001.59
2022-08-05T02:25:33.951Z,98003.16
2022-08-05T02:28:28.294Z,97999.91
2022-08-05T02:31:08.326Z,97998.28
2022-08-05T02:33:57.859Z,97994.94
2022-08-05T02:36:31.310Z,97994.66
2022-08-05T02:39:02.217Z,97985.41
2022-08-05T02:41:42.884Z,97998.66
2022-08-05T02:44:19.749Z,97998.69
2022-08-05T02:46:58.464Z,98004.81
2022-08-05T02:49:36.492Z,98010.47
2022-08-05T02:52:10.030Z,98016.47
2022-08-05T02:54:42.308Z,98007.84
2022-08-05T02:58:11.266Z,98007.31
2022-08-05T03:00:08.383Z,98000.34
2022-08-05T03:02:40.583Z,98000.50
2022-08-05T03:05:13.320Z,98009.78
2022-08-05T03:08:00.257Z,98008.50
2022-08-05T03:10:29.034Z,98014.63
2022-08-05T03:15:23.212Z,98015.28
2022-08-05T03:17:55.470Z,98023.09
2022-08-05T03:20:24.465Z,98018.75
2022-08-05T03:22:53.295Z,98021.28
2022-08-05T03:25:33.079Z,98021.09
2022-08-05T03:28:03.984Z,98039.84
2022-08-05T03:30:34.082Z,98041.25
2022-08-05T03:33:04.094Z,98026.94
2022-08-05T03:35:33.991Z,98031.53
2022-08-05T03:38:07.745Z,98055.63
2022-08-05T03:40:34.798Z,98071.94
2022-08-05T03:43:59.149Z,98068.97
2022-08-05T03:45:57.514Z,98074.00
2022-08-05T03:48:29.939Z,98067.31
2022-08-05T03:52:38.943Z,98056.91
2022-08-05T03:55:52.117Z,98052.53
2022-08-05T03:57:41.288Z,98064.97
2022-08-05T04:00:07.397Z,98065.22
2022-08-05T04:02:58.294Z,98071.00
2022-08-05T04:05:33.538Z,98070.56
2022-08-05T04:08:29.661Z,98070.84
2022-08-05T04:10:56.432Z,98057.06
2022-08-05T04:13:26.312Z,98055.38
2022-08-05T04:16:14.416Z,98050.31
2022-08-05T04:18:41.557Z,98036.31
2022-08-05T04:21:11.152Z,98038.31
2022-08-05T04:24:05.014Z,98048.03
2022-08-05T04:26:26.478Z,98063.03
2022-08-05T04:29:00.723Z,98057.81
2022-08-05T04:31:38.524Z,98056.47
2022-08-05T04:34:33.031Z,98063.81
2022-08-05T04:36:53.940Z,98067.81
2022-08-05T04:39:21.865Z,98081.66
2022-08-05T04:41:51.109Z,98095.16
2022-08-05T04:44:21.375Z,98111.69
2022-08-05T04:46:56.319Z,98135.84
2022-08-05T04:49:24.678Z,98154.47
2022-08-05T04:52:06.205Z,98164.88
2022-08-05T04:54:34.913Z,98175.00
2022-08-05T04:57:01.960Z,98185.50
2022-08-05T04:59:38.327Z,98201.88
2022-08-05T05:02:37.701Z,98204.94
2022-08-05T05:05:02.229Z,98200.25
2022-08-05T05:07:32.610Z,98218.34
2022-08-05T05:10:02.200Z,98226.69
2022-08-05T05:12:30.042Z,98225.91
2022-08-05T05:14:57.077Z,98234.31
2022-08-05T05:17:56.420Z,98239.63
2022-08-05T05:20:13.551Z,98245.22
2022-08-05T05:22:43.962Z,98236.34
2022-08-05T05:25:16.765Z,98247.22
2022-08-05T05:27:53.591Z,98256.00
2022-08-05T05:30:30.878Z,98264.38
2022-08-05T05:33:08.879Z,98267.72
2022-08-05T05:35:46.766Z,98273.91
2022-08-05T05:38:22.592Z,98285.22
2022-08-05T05:40:58.455Z,98277.66
2022-08-05T05:43:54.225Z,98272.72
2022-08-05T05:46:17.823Z,98271.44
2022-08-05T05:48:48.233Z,98287.84
2022-08-05T05:51:27.714Z,98286.84
2022-08-05T05:53:58.763Z,98285.19
2022-08-05T05:56:33.084Z,98288.22
2022-08-05T05:59:08.144Z,98291.75
2022-08-05T06:01:39.504Z,98278.06
2022-08-05T06:04:11.731Z,98282.56
2022-08-05T06:06:42.743Z,98277.28
2022-08-05T06:09:18.202Z,98285.88
2022-08-05T06:12:01.824Z,98290.09
2022-08-05T06:14:30.935Z,98289.72
2022-08-05T06:16:58.647Z,98290.19
2022-08-05T06:19:34.943Z,98289.19
2022-08-05T06:22:07.313Z,98297.75
2022-08-05T06:24:41.234Z,98292.28
2022-08-05T06:28:09.251Z,98303.00
2022-08-05T06:30:19.987Z,98301.38
2022-08-05T06:32:50.739Z,98297.69
2022-08-05T06:36:04.002Z,98283.16
2022-08-05T06:38:11.189Z,98265.22
2022-08-05T06:40:42.075Z,98267.13
2022-08-05T06:43:58.027Z,98266.59
2022-08-05T06:46:04.066Z,98254.88
2022-08-05T06:48:52.639Z,98252.75
2022-08-05T06:51:29.466Z,98249.69
2022-08-05T06:54:02.367Z,98250.84
2022-08-05T06:56:34.519Z,98260.78
2022-08-05T06:59:03.593Z,98267.19
2022-08-05T07:01:36.677Z,98270.69
2022-08-05T07:04:04.286Z,98274.25
2022-08-05T07:06:32.192Z,98272.44
2022-08-05T07:09:04.221Z,98271.81
2022-08-05T07:11:37.077Z,98275.53
2022-08-05T07:14:29.591Z,98270.75
2022-08-05T07:17:58.837Z,98272.00
2022-08-05T07:20:34.042Z,98275.16
2022-08-05T07:22:37.946Z,98280.31
2022-08-05T07:25:22.111Z,98295.13
2022-08-05T07:27:58.828Z,98288.94
2022-08-05T07:30:39.218Z,98293.03
2022-08-05T07:33:10.604Z,98308.06
2022-08-05T07:36:02.709Z,98315.75
2022-08-05T07:38:34.192Z,98314.00
2022-08-05T07:41:35.152Z,98325.91
2022-08-05T07:43:57.149Z,98329.50
2022-08-05T07:46:29.002Z,98316.31
2022-08-05T07:49:02.529Z,98294.75
2022-08-05T07:51:40.963Z,98299.75
2022-08-05T07:54:16.537Z,98310.69
2022-08-05T07:57:13.641Z,98311.34
2022-08-05T07:59:39.962Z,98310.41
2022-08-05T08:02:16.733Z,98315.38
2022-08-05T08:04:48.411Z,98312.56
2022-08-05T08:07:22.440Z,98314.44
2022-08-05T08:09:52.345Z,98318.16
2022-08-05T08:12:35.549Z,98314.47
2022-08-05T08:15:09.688Z,98318.84
2022-08-05T08:17:46.299Z,98315.66
2022-08-05T08:21:00.163Z,98320.69
2022-08-05T08:24:00.457Z,98320.25
2022-08-05T08:26:00.124Z,98314.88
2022-08-05T08:28:36.137Z,98317.50
2022-08-05T08:31:07.724Z,98323.00
2022-08-05T08:33:37.500Z,98313.63
2022-08-05T08:38:56.972Z,98315.78
2022-08-05T08:41:52.377Z,98310.69
2022-08-05T08:45:25.033Z,98308.00
2022-08-05T08:47:46.993Z,98310.97
2022-08-05T08:50:07.820Z,98298.44
2022-08-05T08:52:53.975Z,98310.47
2022-08-05T08:56:03.140Z,98297.03
2022-08-05T08:58:12.997Z,98292.47
2022-08-05T09:00:42.500Z,98293.09
2022-08-05T09:03:11.606Z,98283.09
2022-08-05T09:06:08.603Z,98294.44
2022-08-05T09:08:27.454Z,98288.25
2022-08-05T09:10:58.238Z,98286.84
2022-08-05T09:13:31.883Z,98271.25
2022-08-05T09:16:13.753Z,98277.41
2022-08-05T09:18:44.466Z,98278.13
2022-08-05T09:21:20.913Z,98272.44
2022-08-05T09:24:10.158Z,98273.09
2022-08-05T09:26:37.809Z,98261.09
2022-08-05T09:29:07.062Z,98247.38
2022-08-05T09:32:41.512Z,98253.44
2022-08-05T09:34:26.109Z,98244.16
2022-08-05T09:36:55.974Z,98236.84
2022-08-05T09:39:42.030Z,98229.19
2022-08-05T09:42:23.131Z,98226.69
2022-08-05T09:44:55.989Z,98223.38
2022-08-05T09:47:48.041Z,98221.47
2022-08-05T09:50:38.849Z,98205.91
2022-08-05T09:53:09.131Z,98207.31
2022-08-05T09:55:56.621Z,98207.66
2022-08-05T09:58:29.253Z,98211.34
2022-08-05T10:01:13.382Z,98207.91
2022-08-05T10:04:00.637Z,98204.22
2022-08-05T10:06:28.555Z,98210.84
2022-08-05T10:08:57.186Z,98209.41
2022-08-05T10:11:31.404Z,98205.19
2022-08-05T10:14:26.804Z,98206.63
2022-08-05T10:16:58.773Z,98206.06
2022-08-05T10:19:46.193Z,98215.06
2022-08-05T10:22:29.770Z,98208.84
2022-08-05T10:24:57.886Z,98200.31
2022-08-05T10:27:26.339Z,98203.50
2022-08-05T10:31:20.121Z,98207.34
2022-08-05T10:33:02.593Z,98213.44
2022-08-05T10:35:33.776Z,98220.03
2022-08-05T10:38:08.665Z,98215.06
2022-08-05T10:40:45.956Z,98207.47
2022-08-05T10:43:36.351Z,98205.97
2022-08-05T10:46:07.367Z,98197.69
2022-08-05T10:48:56.831Z,98194.09
2022-08-05T10:51:28.599Z,98198.38
2022-08-05T10:54:01.597Z,98204.50
2022-08-05T10:56:49.429Z,98193.06
2022-08-05T11:00:03.500Z,98190.88
2022-08-05T11:02:34.645Z,98186.84
2022-08-05T11:05:07.015Z,98193.75
2022-08-05T11:08:02.693Z,98196.38
2022-08-05T11:10:27.732Z,98197.34
2022-08-05T11:12:57.561Z,98193.91
2022-08-05T11:16:00.379Z,98195.13
2022-08-05T11:18:34.105Z,98197.97
2022-08-05T11:21:11.304Z,98197.91
2022-08-05T11:24:04.265Z,98202.94
2022-08-05T11:26:43.311Z,98205.91
2022-08-05T11:29:35.016Z,98208.34
2022-08-05T11:32:30.162Z,98202.22
2022-08-05T11:34:58.203Z,98201.34
2022-08-05T11:38:26.173Z,98205.72
2022-08-05T11:41:34.526Z,98205.22
2022-08-05T11:44:40.795Z,98207.31
2022-08-05T11:47:11.115Z,98203.13
2022-08-05T11:49:42.927Z,98197.09
2022-08-05T11:52:11.295Z,98201.44
2022-08-05T11:54:40.563Z,98203.44
2022-08-05T11:57:26.101Z,98195.72
2022-08-05T11:59:55.073Z,98200.38
2022-08-05T12:02:33.141Z,98184.25
2022-08-05T12:05:08.112Z,98190.13
2022-08-05T12:08:08.864Z,98195.22
2022-08-05T12:10:38.459Z,98188.41
2022-08-05T12:13:27.999Z,98184.91
2022-08-05T12:16:14.469Z,98178.63
2022-08-05T12:18:52.219Z,98183.16
2022-08-05T12:21:29.832Z,98185.81
2022-08-05T12:24:08.905Z,98175.19
2022-08-05T12:26:44.011Z,98170.16
2022-08-05T12:29:23.690Z,98173.56
2022-08-05T12:31:56.697Z,98171.25
2022-08-05T12:34:32.088Z,98172.81
2022-08-05T12:37:10.916Z,98171.91
2022-08-05T12:39:51.064Z,98166.75
2022-08-05T12:42:20.829Z,98165.84
2022-08-05T12:44:48.962Z,98167.47
2022-08-05T12:47:30.651Z,98162.25
2022-08-05T12:50:03.065Z,98164.94
2022-08-05T12:52:39.487Z,98162.41
2022-08-05T12:55:25.397Z,98164.94
2022-08-05T12:58:49.054Z,98159.88
2022-08-05T13:02:03.141Z,98156.91
2022-08-05T13:03:41.511Z,98147.53
2022-08-05T13:06:15.855Z,98151.47
2022-08-05T13:08:50.836Z,98154.19
2022-08-05T13:11:56.877Z,98150.56
2022-08-05T13:14:24.673Z,98146.06
2022-08-05T13:17:06.207Z,98155.06
2022-08-05T13:19:40.393Z,98144.72
2022-08-05T13:22:28.010Z,98138.97
2022-08-05T13:25:00.671Z,98144.50
2022-08-05T13:27:37.365Z,98144.88
2022-08-05T13:30:35.400Z,98132.16
2022-08-05T13:32:56.409Z,98138.78
2022-08-05T13:35:43.007Z,98136.25
2022-08-05T13:38:19.982Z,98130.28
2022-08-05T13:40:55.987Z,98133.69
2022-08-05T13:43:23.367Z,98133.34
2022-08-05T13:45:50.983Z,98125.34
2022-08-05T13:48:57.549Z,98131.75
2022-08-05T13:51:10.362Z,98127.97
2022-08-05T13:53:48.028Z,98117.47
2022-08-05T13:56:18.909Z,98118.81
2022-08-05T13:58:53.155Z,98109.66
2022-08-05T14:01:27.442Z,98110.25
2022-08-05T14:04:26.653Z,98115.09
2022-08-05T14:06:58.740Z,98106.78
2022-08-05T14:09:43.015Z,98103.88
2022-08-05T14:12:17.413Z,98102.78
2022-08-05T14:14:46.421Z,98103.28
2022-08-05T14:17:16.870Z,98102.16
2022-08-05T14:19:55.469Z,98103.28
2022-08-05T14:22:24.584Z,98106.72
2022-08-05T14:24:57.980Z,98106.19
2022-08-05T14:27:28.368Z,98112.50
2022-08-05T14:29:56.374Z,98108.69
2022-08-05T14:32:27.704Z,98110.88
2022-08-05T14:34:56.767Z,98106.28
2022-08-05T14:37:44.810Z,98104.78
2022-08-05T14:40:14.000Z,98098.44
2022-08-05T14:42:44.150Z,98102.03
2022-08-05T14:45:11.677Z,98102.09
2022-08-05T14:48:02.948Z,98100.78
2022-08-05T14:50:26.470Z,98107.44
2022-08-05T14:52:57.779Z,98112.63
2022-08-05T14:55:38.654Z,98105.56
2022-08-05T14:58:11.680Z,98113.72
2022-08-05T15:00:59.081Z,98123.00
2022-08-05T15:03:33.939Z,98120.44
2022-08-05T15:06:13.535Z,98123.03
2022-08-05T15:08:59.822Z,98121.53
2022-08-05T15:11:51.862Z,98124.69
2022-08-05T15:14:34.642Z,98133.06
2022-08-05T15:17:44.249Z,98125.31
2022-08-05T15:19:56.937Z,98133.81
2022-08-05T15:22:27.204Z,98135.13
2022-08-05T15:24:56.205Z,98134.88
2022-08-05T15:27:25.437Z,98145.09
2022-08-05T15:29:54.241Z,98146.28
2022-08-05T15:32:27.164Z,98149.75
2022-08-05T15:34:54.945Z,98146.28
2022-08-05T15:38:35.003Z,98158.41
2022-08-05T15:40:58.488Z,98167.38
2022-08-05T15:43:09.192Z,98178.44
2022-08-05T15:45:45.969Z,98196.84
2022-08-05T15:48:15.218Z,98191.44
2022-08-05T15:50:43.933Z,98157.63
2022-08-05T15:53:13.605Z,98131.94
2022-08-05T15:56:03.858Z,98139.03
2022-08-05T15:58:35.597Z,98159.59
2022-08-05T16:01:16.954Z,98170.97
2022-08-05T16:03:50.314Z,98182.34
2022-08-05T16:06:19.843Z,98184.97
2022-08-05T16:08:50.396Z,98183.16
2022-08-05T16:11:18.487Z,98186.97
2022-08-05T16:13:48.465Z,98186.31
2022-08-05T16:16:21.232Z,98176.22
2022-08-05T16:18:52.988Z,98186.47
2022-08-05T16:21:20.713Z,98192.38
2022-08-05T16:24:39.500Z,98193.00
2022-08-05T16:26:57.914Z,98200.38
2022-08-05T16:29:26.987Z,98210.38
2022-08-05T16:31:58.723Z,98210.72
2022-08-05T16:34:27.284Z,98216.41
2022-08-05T16:36:55.274Z,98220.97
2022-08-05T16:39:22.853Z,98223.28
2022-08-05T16:42:14.141Z,98239.50
2022-08-05T16:44:44.283Z,98236.25
2022-08-05T16:47:28.908Z,98243.53
2022-08-05T16:50:06.696Z,98242.22
2022-08-05T16:52:35.766Z,98235.59
2022-08-05T16:55:04.458Z,98241.59
2022-08-05T16:57:53.334Z,98244.88
2022-08-05T17:00:25.967Z,98249.09
2022-08-05T17:03:03.031Z,98260.72
2022-08-05T17:05:31.201Z,98260.72
2022-08-05T17:07:58.758Z,98258.97
2022-08-05T17:10:30.405Z,98260.19
2022-08-05T17:12:58.451Z,98270.31
2022-08-05T17:15:29.346Z,98278.56
2022-08-05T17:18:14.290Z,98282.50
2022-08-05T17:20:42.458Z,98282.03
2022-08-05T17:24:03.450Z,98276.41
2022-08-05T17:25:59.217Z,98280.22
2022-08-05T17:28:26.585Z,98275.75
2022-08-05T17:30:55.909Z,98277.13
2022-08-05T17:33:23.214Z,98283.28
2022-08-05T17:36:08.423Z,98294.38
2022-08-05T17:38:37.325Z,98294.75
2022-08-05T17:41:11.576Z,98300.53
2022-08-05T17:43:55.180Z,98303.13
2022-08-05T17:46:23.690Z,98290.00
2022-08-05T17:48:50.797Z,98303.59
2022-08-05T17:51:21.886Z,98303.34
2022-08-05T17:53:50.803Z,98305.56
2022-08-05T17:56:22.725Z,98306.84
2022-08-05T17:58:51.121Z,98312.28
2022-08-05T18:01:18.931Z,98318.56
2022-08-05T18:03:58.312Z,98316.50
2022-08-05T18:06:31.133Z,98322.03
2022-08-05T18:08:58.682Z,98334.41
2022-08-05T18:11:33.423Z,98335.00
2022-08-05T18:14:07.335Z,98334.75
2022-08-05T18:16:51.479Z,98341.94
2022-08-05T18:19:22.798Z,98335.16
2022-08-05T18:22:09.801Z,98343.78
2022-08-05T18:24:39.551Z,98346.09
2022-08-05T18:27:18.094Z,98355.53
2022-08-05T18:29:51.919Z,98353.75
2022-08-05T18:32:20.898Z,98362.78
2022-08-05T18:34:55.853Z,98363.94
2022-08-05T18:37:34.605Z,98363.22
2022-08-05T18:41:50.740Z,98359.84
2022-08-05T18:42:57.230Z,98371.16
2022-08-05T18:45:24.852Z,98381.84
2022-08-05T18:47:56.778Z,98389.97
2022-08-05T18:50:46.180Z,98393.81
2022-08-05T18:53:20.834Z,98399.31
2022-08-05T18:55:52.088Z,98412.47
2022-08-05T18:58:28.887Z,98421.13
2022-08-05T19:00:57.079Z,98429.09
2022-08-05T19:03:55.110Z,98437.97
2022-08-05T19:06:21.682Z,98450.53
2022-08-05T19:08:49.769Z,98458.34
2022-08-05T19:11:19.489Z,98468.25
2022-08-05T19:14:01.016Z,98478.22
2022-08-05T19:16:36.882Z,98468.69
2022-08-05T19:19:14.525Z,98485.88
2022-08-05T19:21:42.445Z,98489.63
2022-08-05T19:24:12.540Z,98480.28
2022-08-05T19:26:54.140Z,98492.34
2022-08-05T19:29:23.780Z,98489.22
2022-08-05T19:31:57.552Z,98487.38
2022-08-05T19:34:25.632Z,98492.56
2022-08-05T19:36:53.023Z,98498.78
2022-08-05T19:39:20.104Z,98508.75
2022-08-05T19:42:07.089Z,98518.13
2022-08-05T19:44:45.233Z,98516.44
2022-08-05T19:47:15.331Z,98507.94
2022-08-05T19:49:45.189Z,98515.66
2022-08-05T19:52:30.259Z,98521.44
2022-08-05T19:55:00.398Z,98538.91
2022-08-05T19:57:49.040Z,98540.34
2022-08-05T20:00:22.145Z,98550.94
2022-08-05T20:02:49.538Z,98547.19
2022-08-05T20:05:24.429Z,98546.53
2022-08-05T20:07:57.709Z,98546.53
2022-08-05T20:10:26.689Z,98528.84
2022-08-05T20:12:55.103Z,98543.56
2022-08-05T20:15:51.647Z,98547.31
2022-08-05T20:18:33.955Z,98563.28
2022-08-05T20:20:58.237Z,98569.88
2022-08-05T20:23:39.873Z,98582.16
2022-08-05T20:26:17.300Z,98586.47
2022-08-05T20:28:47.954Z,98584.34
2022-08-05T20:31:16.338Z,98584.94
2022-08-05T20:33:44.990Z,98583.47
2022-08-05T20:36:14.291Z,98565.41
2022-08-05T20:38:53.727Z,98565.59
2022-08-05T20:41:26.914Z,98582.47
2022-08-05T20:43:59.774Z,98606.22
2022-08-05T20:46:29.073Z,98614.78
2022-08-05T20:48:56.515Z,98615.09
2022-08-05T20:51:23.952Z,98616.31
2022-08-05T20:53:56.328Z,98611.38
2022-08-05T20:56:28.191Z,98614.63
2022-08-05T20:59:04.233Z,98619.34
2022-08-05T21:01:42.064Z,98632.91
2022-08-05T21:04:12.600Z,98635.91
2022-08-05T21:06:45.469Z,98647.94
2022-08-05T21:09:14.875Z,98630.50
2022-08-05T21:12:07.661Z,98648.81
2022-08-05T21:14:34.600Z,98652.44
2022-08-05T21:17:05.069Z,98671.09
2022-08-05T21:19:46.550Z,98674.09
2022-08-05T21:22:18.322Z,98680.44
2022-08-05T21:24:48.752Z,98670.69
2022-08-05T21:27:16.579Z,98676.78
2022-08-05T21:29:48.408Z,98681.63
2022-08-05T21:32:20.026Z,98678.63
2022-08-05T21:35:06.811Z,98678.16
2022-08-05T21:37:34.942Z,98685.34
2022-08-05T21:40:13.181Z,98687.19
2022-08-05T21:42:44.712Z,98680.53
2022-08-05T21:45:24.589Z,98679.34
2022-08-05T21:47:55.657Z,98681.50
2022-08-05T21:50:27.931Z,98687.88
2022-08-05T21:52:58.979Z,98690.38
2022-08-05T21:56:01.315Z,98690.22
2022-08-05T21:58:24.979Z,98702.34
2022-08-05T22:00:58.369Z,98716.91
2022-08-05T22:03:52.852Z,98719.25
2022-08-05T22:06:12.841Z,98726.97
2022-08-05T22:08:42.514Z,98732.16
2022-08-05T22:11:15.586Z,98733.69
2022-08-05T22:14:19.894Z,98738.22
2022-08-05T22:16:41.750Z,98742.38
2022-08-05T22:20:02.971Z,98739.81
2022-08-05T22:22:07.017Z,98727.75
2022-08-05T22:24:53.537Z,98730.44
2022-08-05T22:28:09.184Z,98741.50
2022-08-05T22:30:35.105Z,98754.09
2022-08-05T22:33:15.554Z,98775.41
2022-08-05T22:35:48.483Z,98786.63
2022-08-05T22:38:19.584Z,98778.22
2022-08-05T22:40:49.858Z,98782.44
2022-08-05T22:43:36.674Z,98783.25
2022-08-05T22:46:13.110Z,98790.69
2022-08-05T22:48:42.034Z,98788.81
2022-08-05T22:51:22.376Z,98803.22
2022-08-05T22:53:50.282Z,98820.34
2022-08-05T22:56:18.109Z,98825.34
2022-08-05T22:59:02.874Z,98834.41
2022-08-05T23:02:03.985Z,98838.75
2022-08-05T23:04:18.125Z,98843.28
2022-08-05T23:06:45.538Z,98841.47
2022-08-05T23:09:52.756Z,98849.47
2022-08-05T23:12:02.564Z,98847.47
2022-08-05T23:14:32.171Z,98840.28
2022-08-05T23:17:24.333Z,98843.78
2022-08-05T23:20:02.305Z,98842.59
2022-08-05T23:22:30.803Z,98859.94
2022-08-05T23:24:58.403Z,98861.59
2022-08-05T23:27:31.324Z,98860.41
2022-08-05T23:30:10.774Z,98852.16
2022-08-05T23:32:37.966Z,98846.00
2022-08-05T23:35:12.589Z,98851.00
2022-08-05T23:37:39.721Z,98866.25
2022-08-05T23:40:09.547Z,98865.09
2022-08-05T23:42:38.623Z,98864.72
2022-08-05T23:45:13.838Z,98864.59
2022-08-05T23:47:47.815Z,98871.59
2022-08-05T23:50:16.984Z,98874.09
2022-08-05T23:52:50.007Z,98869.59
2022-08-05T23:55:19.108Z,98868.44
2022-08-05T23:57:49.033Z,98874.78
